createdAt,value
2022-10-01T05:01:52.434Z,10.52
2022-10-01T05:04:19.996Z,8.82
2022-10-01T05:06:47.517Z,9.85
2022-10-01T05:09:15.036Z,9.98
2022-10-01T05:11:42.537Z,10.50
2022-10-01T05:14:10.063Z,12.13
2022-10-01T05:16:38.913Z,9.48
2022-10-01T05:19:07.843Z,8.15
2022-10-01T05:21:35.631Z,13.88
2022-10-01T05:24:03.269Z,9.20
2022-10-01T05:26:32.054Z,6.13
2022-10-01T05:29:00.542Z,6.82
2022-10-01T05:31:28.160Z,7.82
2022-10-01T05:33:55.737Z,7.82
2022-10-01T05:36:24.605Z,6.23
2022-10-01T05:38:52.374Z,6.97
2022-10-01T05:41:19.998Z,7.20
2022-10-01T05:43:49.161Z,8.07
2022-10-01T05:46:16.704Z,8.43
2022-10-01T05:48:44.309Z,9.57
2022-10-01T05:51:15.175Z,7.03
2022-10-01T05:53:50.133Z,8.77
2022-10-01T05:56:17.878Z,8.18
2022-10-01T05:58:46.394Z,8.38
2022-10-01T06:01:13.983Z,7.70
2022-10-01T06:03:41.462Z,7.82
2022-10-01T06:06:08.973Z,7.40
2022-10-01T06:08:37.049Z,7.53
2022-10-01T06:11:06.012Z,8.23
2022-10-01T06:13:33.595Z,7.53
2022-10-01T06:16:01.217Z,8.13
2022-10-01T06:18:28.783Z,7.63
2022-10-01T06:20:56.310Z,7.45
2022-10-01T06:23:23.805Z,7.93
2022-10-01T06:25:51.324Z,7.87
2022-10-01T06:28:20.217Z,8.00
2022-10-01T06:30:47.777Z,10.55
2022-10-01T06:33:16.368Z,7.80
2022-10-01T06:35:44.971Z,11.65
2022-10-01T06:38:12.791Z,9.47
2022-10-01T06:40:40.701Z,7.88
2022-10-01T06:43:08.626Z,9.52
2022-10-01T06:45:39.302Z,6.90
2022-10-01T06:48:07.231Z,8.52
2022-10-01T06:50:35.266Z,7.00
2022-10-01T06:53:02.815Z,8.25
2022-10-01T06:55:31.363Z,8.07
2022-10-01T06:57:59.408Z,6.80
2022-10-01T07:00:27.051Z,8.82
2022-10-01T07:02:56.451Z,8.60
2022-10-01T07:05:23.969Z,7.63
2022-10-01T07:07:51.755Z,7.40
2022-10-01T07:10:20.983Z,9.27
2022-10-01T07:12:49.539Z,7.78
2022-10-01T07:15:17.729Z,8.00
2022-10-01T07:17:45.940Z,7.05
2022-10-01T07:20:17.632Z,8.32
2022-10-01T07:22:45.161Z,7.50
2022-10-01T07:25:12.952Z,9.18
2022-10-01T07:27:40.755Z,9.67
2022-10-01T07:30:08.830Z,7.80
2022-10-01T07:32:36.323Z,7.18
2022-10-01T07:35:05.000Z,6.60
2022-10-01T07:37:33.877Z,7.35
2022-10-01T07:40:06.528Z,6.67
2022-10-01T07:42:35.248Z,6.97
2022-10-01T07:45:04.231Z,6.38
2022-10-01T07:47:31.893Z,6.40
2022-10-01T07:49:59.447Z,6.40
2022-10-01T07:52:26.934Z,5.97
2022-10-01T07:54:55.784Z,7.18
2022-10-01T07:57:23.355Z,7.78
2022-10-01T07:59:55.509Z,5.68
2022-10-01T08:02:23.615Z,5.88
2022-10-01T08:05:08.543Z,6.03
2022-10-01T08:07:36.816Z,7.40
2022-10-01T08:10:06.230Z,4.78
2022-10-01T08:12:34.133Z,5.20
2022-10-01T08:15:02.186Z,5.15
2022-10-01T08:17:29.764Z,5.90
2022-10-01T08:19:57.236Z,5.93
2022-10-01T08:22:24.740Z,5.50
2022-10-01T08:24:52.197Z,4.60
2022-10-01T08:27:21.029Z,5.50
2022-10-01T08:29:48.479Z,4.83
2022-10-01T08:32:15.984Z,5.70
2022-10-01T08:34:43.491Z,6.05
2022-10-01T08:37:10.989Z,5.32
2022-10-01T08:39:38.486Z,5.50
2022-10-01T08:42:08.886Z,5.03
2022-10-01T08:44:41.283Z,5.72
2022-10-01T08:47:11.433Z,5.18
2022-10-01T08:49:42.199Z,6.20
2022-10-01T08:52:15.696Z,5.13
2022-10-01T08:54:45.673Z,5.77
2022-10-01T08:57:14.724Z,6.43
2022-10-01T08:59:44.722Z,5.55
2022-10-01T09:02:19.032Z,6.07
2022-10-01T09:04:46.890Z,5.82
2022-10-01T09:07:21.161Z,4.87
2022-10-01T09:09:56.187Z,4.97
2022-10-01T09:12:29.149Z,5.65
2022-10-01T09:15:12.898Z,5.57
2022-10-01T09:17:45.698Z,5.95
2022-10-01T09:20:18.521Z,5.57
2022-10-01T09:22:51.459Z,5.07
2022-10-01T09:25:25.692Z,5.38
2022-10-01T09:27:57.972Z,5.78
2022-10-01T09:30:27.120Z,5.28
2022-10-01T09:32:56.479Z,5.10
2022-10-01T09:35:36.740Z,4.80
2022-10-01T09:38:06.004Z,4.85
2022-10-01T09:40:39.690Z,5.10
2022-10-01T09:43:09.137Z,4.45
2022-10-01T09:45:38.568Z,5.97
2022-10-01T09:48:14.985Z,4.82
2022-10-01T09:50:45.033Z,4.50
2022-10-01T09:53:16.045Z,4.78
2022-10-01T09:55:45.240Z,5.53
2022-10-01T09:58:14.362Z,6.50
2022-10-01T10:00:44.004Z,5.57
2022-10-01T10:03:11.591Z,6.15
2022-10-01T10:05:43.794Z,7.07
2022-10-01T10:08:13.775Z,10.02
2022-10-01T10:10:48.419Z,7.30
2022-10-01T10:13:19.179Z,6.55
2022-10-01T10:15:52.602Z,7.95
2022-10-01T10:18:26.778Z,6.45
2022-10-01T10:20:54.948Z,6.60
2022-10-01T10:23:23.279Z,10.20
2022-10-01T10:25:55.690Z,8.02
2022-10-01T10:28:24.720Z,7.00
2022-10-01T10:30:54.788Z,10.38
2022-10-01T10:33:22.918Z,9.95
2022-10-01T10:35:58.089Z,8.93
2022-10-01T10:38:26.705Z,8.23
2022-10-01T10:40:54.197Z,11.25
2022-10-01T10:43:22.958Z,8.52
2022-10-01T10:45:56.145Z,8.32
2022-10-01T10:54:01.223Z,8.18
2022-10-01T10:56:28.640Z,12.40
2022-10-01T10:58:56.162Z,12.23
2022-10-01T11:01:26.739Z,13.93
2022-10-01T11:03:57.085Z,12.75
2022-10-01T11:06:27.633Z,9.13
2022-10-01T11:09:00.970Z,8.60
2022-10-01T11:14:23.767Z,8.95
2022-10-01T11:16:55.405Z,9.43
2022-10-01T11:19:32.660Z,7.57
2022-10-01T11:22:08.919Z,8.50
2022-10-01T11:24:50.778Z,5.47
2022-10-01T11:27:22.399Z,7.13
2022-10-01T11:29:53.898Z,5.32
2022-10-01T11:37:35.719Z,5.53
2022-10-01T11:40:04.260Z,4.10
2022-10-01T11:42:34.034Z,3.90
2022-10-01T11:45:04.671Z,3.50
2022-10-01T11:47:34.119Z,4.93
2022-10-01T11:50:04.107Z,3.72
2022-10-01T11:52:36.409Z,3.90
2022-10-01T11:55:23.635Z,4.75
2022-10-01T11:58:10.509Z,5.60
2022-10-01T12:00:39.174Z,3.00
2022-10-01T12:03:07.880Z,4.05
2022-10-01T12:05:35.758Z,3.30
2022-10-01T12:08:09.288Z,3.97
2022-10-01T12:10:39.246Z,5.72
2022-10-01T12:13:11.752Z,4.03
2022-10-01T12:15:43.936Z,4.15
2022-10-01T12:18:14.184Z,3.78
2022-10-01T12:20:42.906Z,4.25
2022-10-01T12:23:15.266Z,3.75
2022-10-01T12:25:49.114Z,4.33
2022-10-01T12:28:20.308Z,3.63
2022-10-01T12:30:51.614Z,3.15
2022-10-01T12:33:28.794Z,4.15
2022-10-01T12:36:03.231Z,3.55
2022-10-01T12:38:43.686Z,3.90
2022-10-01T12:41:18.815Z,3.58
2022-10-01T12:44:03.274Z,3.13
2022-10-01T12:46:34.749Z,3.55
2022-10-01T12:49:09.615Z,3.88
2022-10-01T12:51:41.822Z,4.87
2022-10-01T12:54:42.593Z,2.88
2022-10-01T12:57:18.643Z,3.70
2022-10-01T12:59:57.606Z,3.25
2022-10-01T13:02:41.844Z,3.20
2022-10-01T13:05:19.958Z,2.80
2022-10-01T13:07:56.598Z,3.25
2022-10-01T13:10:32.266Z,2.70
2022-10-01T13:13:02.966Z,2.70
2022-10-01T13:15:32.680Z,2.60
2022-10-01T13:18:06.115Z,4.83
2022-10-01T13:20:38.136Z,2.80
2022-10-01T13:23:09.019Z,3.53
2022-10-01T13:25:39.728Z,3.28
2022-10-01T13:28:13.029Z,6.68
2022-10-01T13:30:47.578Z,4.50
2022-10-01T13:33:26.286Z,5.68
2022-10-01T13:35:55.166Z,3.92
2022-10-01T13:38:40.215Z,5.60
2022-10-01T13:41:16.530Z,7.10
2022-10-01T13:43:57.152Z,6.47
2022-10-01T13:46:26.570Z,7.50
2022-10-01T13:48:54.237Z,8.27
2022-10-01T13:51:21.899Z,7.72
2022-10-01T13:53:52.515Z,6.45
2022-10-01T13:56:30.400Z,7.70
2022-10-01T13:58:59.323Z,7.38
2022-10-01T14:01:31.528Z,6.57
2022-10-01T14:04:05.567Z,6.05
2022-10-01T14:06:39.749Z,6.05
2022-10-01T14:09:11.132Z,7.27
2022-10-01T14:11:56.353Z,5.22
2022-10-01T14:14:45.404Z,6.93
2022-10-01T14:17:13.756Z,7.55
2022-10-01T14:19:46.890Z,5.47
2022-10-01T14:22:18.574Z,7.03
2022-10-01T14:24:56.091Z,9.13
2022-10-01T14:27:25.751Z,4.60
2022-10-01T14:30:00.453Z,8.38
2022-10-01T14:32:34.650Z,7.65
2022-10-01T14:35:06.552Z,6.07
2022-10-01T14:37:38.208Z,10.52
2022-10-01T14:40:14.029Z,8.75
2022-10-01T14:42:41.609Z,6.70
2022-10-01T14:45:17.566Z,4.93
2022-10-01T14:47:45.165Z,10.60
2022-10-01T14:50:13.665Z,6.43
2022-10-01T14:52:45.937Z,7.75
2022-10-01T14:55:14.556Z,5.65
2022-10-01T14:57:43.694Z,7.20
2022-10-01T15:00:15.483Z,5.47
2022-10-01T15:02:47.375Z,7.43
2022-10-01T15:05:24.782Z,5.28
2022-10-01T15:07:52.572Z,8.02
2022-10-01T15:10:20.760Z,6.78
2022-10-01T15:12:50.606Z,6.37
2022-10-01T15:15:19.805Z,5.97
2022-10-01T15:17:49.360Z,6.05
2022-10-01T15:20:17.018Z,8.05
2022-10-01T15:22:45.479Z,4.28
2022-10-01T15:25:18.716Z,6.30
2022-10-01T15:27:46.320Z,5.68
2022-10-01T15:30:15.362Z,5.00
2022-10-01T15:32:42.990Z,6.80
2022-10-01T15:35:13.130Z,5.72
2022-10-01T15:37:41.459Z,3.20
2022-10-01T15:40:21.103Z,7.18
2022-10-01T15:43:08.832Z,5.22
2022-10-01T15:45:36.607Z,6.30
2022-10-01T15:48:04.211Z,4.95
2022-10-01T15:50:36.448Z,5.03
2022-10-01T15:53:06.631Z,5.55
2022-10-01T15:55:35.916Z,4.35
2022-10-01T15:58:05.992Z,5.43
2022-10-01T16:00:37.706Z,6.10
2022-10-01T16:03:05.407Z,4.53
2022-10-01T16:05:37.758Z,4.82
2022-10-01T16:08:05.362Z,5.15
2022-10-01T16:10:34.616Z,4.78
2022-10-01T16:13:28.997Z,4.47
2022-10-01T16:16:15.091Z,4.47
2022-10-01T16:18:43.049Z,6.25
2022-10-01T16:21:12.228Z,4.55
2022-10-01T16:23:43.069Z,5.25
2022-10-01T16:26:32.345Z,7.05
2022-10-01T16:29:01.346Z,5.00
2022-10-01T16:31:29.660Z,5.20
2022-10-01T16:33:57.227Z,7.22
2022-10-01T16:36:26.398Z,5.70
2022-10-01T16:38:53.907Z,5.63
2022-10-01T16:41:23.154Z,5.70
2022-10-01T16:43:50.890Z,6.78
2022-10-01T16:46:18.438Z,7.47
2022-10-01T16:48:47.312Z,7.35
2022-10-01T16:51:14.830Z,4.72
2022-10-01T16:53:43.787Z,9.43
2022-10-01T16:56:11.649Z,6.45
2022-10-01T16:58:39.870Z,4.40
2022-10-01T17:01:08.555Z,6.90
2022-10-01T17:03:36.508Z,8.10
2022-10-01T17:06:04.483Z,8.87
2022-10-01T17:08:31.979Z,5.90
2022-10-01T17:11:01.937Z,7.82
2022-10-01T17:13:30.505Z,7.43
2022-10-01T17:15:58.645Z,7.55
2022-10-01T17:18:26.200Z,8.23
2022-10-01T17:20:53.720Z,5.70
2022-10-01T17:23:22.255Z,7.13
2022-10-01T17:25:49.948Z,7.72
2022-10-01T17:28:19.991Z,9.40
2022-10-01T17:30:48.449Z,8.30
2022-10-01T17:33:18.736Z,7.85
2022-10-01T17:35:48.594Z,7.93
2022-10-01T17:38:16.084Z,9.50
2022-10-01T17:40:45.073Z,7.65
2022-10-01T17:43:12.956Z,7.77
2022-10-01T17:45:42.050Z,8.15
2022-10-01T17:48:09.670Z,8.57
2022-10-01T17:50:43.737Z,9.77
2022-10-01T17:53:11.551Z,6.82
2022-10-01T17:55:40.553Z,8.53
2022-10-01T17:58:08.027Z,8.27
2022-10-01T18:00:35.588Z,9.40
2022-10-01T18:03:04.963Z,7.13
2022-10-01T18:05:32.496Z,8.32
2022-10-01T18:07:59.997Z,9.63
2022-10-01T18:10:27.525Z,8.50
2022-10-01T18:12:55.051Z,8.63
2022-10-01T18:15:24.061Z,8.73
2022-10-01T18:18:48.534Z,7.75
2022-10-01T18:20:42.325Z,5.57
2022-10-01T18:23:09.817Z,6.63
2022-10-01T18:25:37.337Z,8.90
2022-10-01T18:28:04.892Z,9.57
2022-10-01T18:30:32.369Z,8.27
2022-10-01T18:33:01.487Z,8.80
2022-10-01T18:35:30.971Z,9.25
2022-10-01T18:38:03.233Z,8.75
2022-10-01T18:40:33.450Z,7.65
2022-10-01T18:43:03.653Z,11.30
2022-10-01T18:45:47.480Z,8.50
2022-10-01T18:48:27.273Z,8.90
2022-10-01T18:50:59.040Z,10.85
2022-10-01T18:53:53.453Z,11.15
2022-10-01T18:56:26.103Z,10.80
2022-10-01T18:59:08.461Z,9.03
2022-10-01T19:01:40.975Z,10.10
2022-10-01T19:04:23.398Z,7.53
2022-10-01T19:06:58.462Z,9.55
2022-10-01T19:09:34.020Z,8.68
2022-10-01T19:12:10.533Z,11.67
2022-10-01T19:14:42.823Z,8.63
2022-10-01T19:17:15.449Z,8.82
2022-10-01T19:19:47.220Z,7.72
2022-10-01T19:22:18.855Z,10.05
2022-10-01T19:24:54.381Z,9.83
2022-10-01T19:27:30.902Z,7.65
2022-10-01T19:30:02.665Z,8.95
2022-10-01T19:32:34.496Z,8.23
2022-10-01T19:35:04.098Z,11.40
2022-10-01T19:37:36.604Z,8.13
2022-10-01T19:40:07.988Z,7.50
2022-10-01T19:42:39.214Z,9.50
2022-10-01T19:45:15.585Z,13.32
2022-10-01T19:47:46.927Z,8.85
2022-10-01T19:50:18.149Z,10.17
2022-10-01T19:52:50.496Z,9.57
2022-10-01T19:55:19.486Z,12.27
2022-10-01T19:57:48.798Z,12.27
2022-10-01T20:00:19.790Z,9.25
2022-10-01T20:02:50.366Z,11.73
2022-10-01T20:05:20.078Z,6.53
2022-10-01T20:07:48.212Z,6.85
2022-10-01T20:10:20.050Z,10.18
2022-10-01T20:12:52.603Z,9.55
2022-10-01T20:15:26.989Z,9.73
2022-10-01T20:18:00.203Z,8.23
2022-10-01T20:20:34.349Z,8.68
2022-10-01T20:23:09.356Z,11.32
2022-10-01T20:25:43.206Z,6.78
2022-10-01T20:28:16.168Z,7.47
2022-10-01T20:30:47.104Z,8.27
2022-10-01T20:33:17.175Z,11.18
2022-10-01T20:35:49.443Z,9.48
2022-10-01T20:38:19.900Z,6.45
2022-10-01T20:40:49.730Z,8.00
2022-10-01T20:43:20.714Z,7.95
2022-10-01T20:45:50.144Z,9.73
2022-10-01T20:48:19.296Z,7.72
2022-10-01T20:50:48.424Z,9.00
2022-10-01T20:53:22.974Z,7.93
2022-10-01T20:55:53.805Z,8.18
2022-10-01T20:58:24.624Z,10.52
2022-10-01T21:00:54.374Z,8.48
2022-10-01T21:03:24.979Z,7.78
2022-10-01T21:05:55.088Z,9.40
2022-10-01T21:08:28.681Z,12.07
2022-10-01T21:10:57.778Z,6.80
2022-10-01T21:13:30.065Z,10.77
2022-10-01T21:16:03.133Z,10.73
2022-10-01T21:18:36.244Z,8.40
2022-10-01T21:21:10.313Z,6.43
2022-10-01T21:23:45.831Z,6.72
2022-10-01T21:26:16.312Z,7.20
2022-10-01T21:28:57.653Z,7.82
2022-10-01T21:31:31.034Z,10.80
2022-10-01T21:34:02.896Z,8.70
2022-10-01T21:36:34.029Z,8.63
2022-10-01T21:39:05.651Z,7.05
2022-10-01T21:41:40.038Z,7.82
2022-10-01T21:44:18.525Z,7.63
2022-10-01T21:46:51.068Z,7.90
2022-10-01T21:49:24.576Z,10.40
2022-10-01T21:51:58.517Z,8.45
2022-10-01T21:54:44.631Z,12.93
2022-10-01T21:57:20.362Z,7.67
2022-10-01T21:59:59.558Z,7.72
2022-10-01T22:02:33.646Z,8.70
2022-10-01T22:05:05.548Z,7.00
2022-10-01T22:07:35.375Z,8.27
2022-10-01T22:10:07.419Z,6.90
2022-10-01T22:12:36.193Z,7.57
2022-10-01T22:15:07.035Z,7.78
2022-10-01T22:17:35.060Z,10.80
2022-10-01T22:20:03.630Z,8.07
2022-10-01T22:22:32.444Z,7.23
2022-10-01T22:25:00.851Z,6.28
2022-10-01T22:27:32.121Z,8.40
2022-10-01T22:30:01.198Z,8.52
2022-10-01T22:32:34.128Z,7.32
2022-10-01T22:35:04.091Z,6.40
2022-10-01T22:37:34.764Z,7.05
2022-10-01T22:40:05.715Z,7.22
2022-10-01T22:42:35.438Z,7.68
2022-10-01T22:45:07.253Z,7.45
2022-10-01T22:47:40.226Z,7.47
2022-10-01T22:50:14.108Z,5.63
2022-10-01T22:52:46.092Z,5.93
2022-10-01T22:55:21.049Z,5.75
2022-10-01T22:57:57.952Z,5.63
2022-10-01T23:00:25.835Z,6.90
2022-10-01T23:03:02.867Z,8.88
2022-10-01T23:05:40.126Z,4.38
2022-10-01T23:08:13.034Z,5.93
2022-10-01T23:10:42.835Z,8.52
2022-10-01T23:13:16.953Z,6.33
2022-10-01T23:15:49.014Z,9.80
2022-10-01T23:18:25.026Z,5.78
2022-10-01T23:21:05.473Z,12.68
2022-10-01T23:23:33.534Z,7.88
2022-10-01T23:26:11.160Z,5.70
2022-10-01T23:28:45.813Z,10.35
2022-10-01T23:31:18.844Z,9.70
2022-10-01T23:33:53.596Z,5.80
2022-10-01T23:36:25.868Z,7.28
2022-10-01T23:39:11.233Z,8.33
2022-10-01T23:41:41.877Z,7.80
2022-10-01T23:44:11.760Z,8.90
2022-10-01T23:46:40.789Z,8.18
2022-10-01T23:49:13.521Z,6.47
2022-10-01T23:51:44.133Z,8.40
2022-10-01T23:54:15.635Z,9.52
2022-10-01T23:56:50.550Z,9.68
2022-10-01T23:59:21.998Z,8.35
